METAR Data
IDs: Format: Raw Decoded Include TAF

Data at: 1006 UTC 18 Jan 2022

K4BM 180955Z AUTO 25007KT 10SM SCT120 M02/M15 A3002 RMK AO2
K4BM 180935Z AUTO 26006KT 10SM CLR M03/M15 A3003 RMK AO2
K4BM 180915Z AUTO 26008G16KT 10SM CLR M02/M15 A3002 RMK AO2
K4BM 180855Z AUTO 26008KT 10SM SCT120 M02/M15 A3003 RMK AO2
K4BM 180835Z AUTO 26005KT 10SM SCT120 M02/M15 A3003 RMK AO2
K4BM 180815Z AUTO 26006KT 10SM CLR M02/M15 A3003 RMK AO2
K4BM 180755Z AUTO 27007KT 10SM CLR M02/M14 A3003 RMK AO2
K4BM 180735Z AUTO 28009G14KT 10SM CLR M03/M14 A3003 RMK AO2
K4BM 180715Z AUTO 28007KT 10SM CLR M03/M15 A3005 RMK AO2
K4BM 180655Z AUTO 28008G16KT 10SM CLR M03/M15 A3005 RMK AO2
K4BM 180635Z AUTO 27009G14KT 10SM CLR M03/M15 A3006 RMK AO2 LTG DSNT E
K4BM 180615Z AUTO 28011G16KT 10SM CLR M03/M15 A3006 RMK AO2
K4BM 180555Z AUTO 28009G19KT 10SM CLR M03/M15 A3007 RMK AO2
K4BM 180535Z AUTO 28010G15KT 10SM SCT110 M02/M15 A3007 RMK AO2
K4BM 180515Z AUTO 27007KT 10SM BKN110 M02/M15 A3008 RMK AO2
K4BM 180455Z AUTO 26008G16KT 230V290 10SM OVC110 M02/M14 A3008 RMK AO2
K4BM 180435Z AUTO 26007KT 10SM OVC100 M02/M14 A3009 RMK AO2
K4BM 180415Z AUTO 28007KT 10SM BKN110 M02/M13 A3009 RMK AO2
K4BM 180355Z AUTO 27007G16KT 10SM CLR M02/M14 A3009 RMK AO2
K4BM 180335Z AUTO 25006KT 10SM CLR M02/M15 A3009 RMK AO2
K4BM 180315Z AUTO 26007KT 220V280 10SM CLR M02/M15 A3009 RMK AO2
K4BM 180255Z AUTO 23007G14KT 10SM CLR M01/M15 A3009 RMK AO2 LTG DSNT E
K4BM 180235Z AUTO 22010G18KT 10SM CLR M01/M16 A3008 RMK AO2
K4BM 180215Z AUTO 23009G15KT 10SM CLR M01/M15 A3009 RMK AO2
K4BM 180155Z AUTO 23010G20KT 10SM CLR M01/M15 A3009 RMK AO2
K4BM 180135Z AUTO 24007KT 10SM CLR M01/M15 A3010 RMK AO2
K4BM 180115Z AUTO 23006KT 10SM CLR M01/M15 A3010 RMK AO2
K4BM 180055Z AUTO 24007KT 200V270 10SM CLR M01/M15 A3011 RMK AO2
K4BM 180036Z AUTO 25007G14KT 10SM CLR M01/M15 A3010 RMK AO2
K4BM 180015Z AUTO 25007G16KT 10SM CLR 00/M15 A3010 RMK AO2
K4BM 172355Z AUTO 24006KT 10SM CLR 00/M15 A3011 RMK AO2
K4BM 172335Z AUTO 24007KT 10SM CLR 00/M15 A3010 RMK AO2
K4BM 172315Z AUTO 24007KT 210V270 10SM CLR 00/M14 A3010 RMK AO2
K4BM 172255Z AUTO 27005KT 10SM CLR 00/M15 A3011 RMK AO2
K4BM 172235Z AUTO 26004KT 10SM CLR 01/M14 A3012 RMK AO2 LTG DSNT E
K4BM 172215Z AUTO 30004KT 10SM CLR 02/M15 A3012 RMK AO2 LTG DSNT E
K4BM 172155Z AUTO 24005KT 10SM CLR 01/M15 A3012 RMK AO2 LTG DSNT E
K4BM 172135Z AUTO 26007KT 10SM CLR 01/M15 A3012 RMK AO2
K4BM 172115Z AUTO 23004KT 10SM CLR 01/M15 A3012 RMK AO2
K4BM 172055Z AUTO 22007KT 190V260 10SM CLR 01/M15 A3011 RMK AO2
K4BM 172035Z AUTO 23004KT 10SM CLR 01/M14 A3012 RMK AO2
K4BM 172015Z AUTO 18005KT 10SM CLR 01/M14 A3012 RMK AO2
K4BM 171955Z AUTO 17004KT 10SM CLR 01/M15 A3014 RMK AO2
K4BM 171935Z AUTO 20004KT 10SM CLR 01/M15 A3014 RMK AO2
K4BM 171915Z AUTO 20006KT 10SM CLR 01/M15 A3014 RMK AO2
K4BM 171855Z AUTO 20007KT 10SM CLR 02/M16 A3015 RMK AO2
K4BM 171835Z AUTO 21007KT 10SM CLR 01/M16 A3015 RMK AO2
K4BM 171815Z AUTO 20006KT 10SM CLR 01/M17 A3017 RMK AO2
K4BM 171755Z AUTO 23006KT 10SM CLR 01/M17 A3018 RMK AO2
K4BM 171735Z AUTO 23006KT 10SM CLR 00/M17 A3019 RMK AO2
K4BM 171715Z AUTO 23005KT 10SM CLR 00/M17 A3019 RMK AO2
K4BM 171655Z AUTO 23006KT 10SM CLR 00/M17 A3019 RMK AO2
K4BM 171635Z AUTO 24006KT 10SM CLR 00/M17 A3019 RMK AO2
K4BM 171615Z AUTO 25006KT 10SM CLR M01/M17 A3019 RMK AO2 LTG DSNT E
K4BM 171555Z AUTO 25007KT 10SM CLR M01/M17 A3018 RMK AO2
K4BM 171535Z AUTO 25008KT 10SM CLR M02/M17 A3017 RMK AO2
K4BM 171515Z AUTO 24007KT 10SM CLR M02/M17 A3017 RMK AO2
K4BM 171455Z AUTO 23007KT 10SM CLR M02/M17 A3017 RMK AO2
K4BM 171435Z AUTO 24006KT 10SM CLR M02/M16 A3017 RMK AO2 LTG DSNT E
K4BM 171415Z AUTO 25007KT 10SM CLR M02/M16 A3017 RMK AO2 LTG DSNT E
K4BM 171355Z AUTO 25007G15KT 10SM CLR M02/M16 A3017 RMK AO2 LTG DSNT E
K4BM 171335Z AUTO 26009G14KT 10SM CLR M02/M16 A3017 RMK AO2
K4BM 171315Z AUTO 25008KT 10SM CLR M03/M16 A3016 RMK AO2 LTG DSNT E
K4BM 171255Z AUTO 25008KT 10SM CLR M03/M16 A3016 RMK AO2
K4BM 171235Z AUTO 25008G15KT 10SM CLR M02/M15 A3016 RMK AO2
K4BM 171215Z AUTO 26009G14KT 10SM CLR M02/M15 A3017 RMK AO2
K4BM 171155Z AUTO 26009G19KT 10SM CLR M02/M15 A3017 RMK AO2 LTG DSNT E
K4BM 171135Z AUTO 26010G16KT 10SM CLR M02/M16 A3017 RMK AO2
K4BM 171115Z AUTO 27009G21KT 10SM CLR M02/M16 A3016 RMK AO2
K4BM 171055Z AUTO 27011G18KT 10SM CLR M02/M16 A3017 RMK AO2
K4BM 171035Z AUTO 27007G24KT 210V310 10SM CLR M02/M16 A3017 RMK AO2
K4BM 171015Z AUTO 25010G15KT 10SM CLR M02/M16 A3017 RMK AO2 LTG DSNT E
K4BM 170955Z AUTO 26010G19KT 10SM CLR M03/M15 A3017 RMK AO2
K4BM 170935Z AUTO 25008KT 10SM CLR M04/M16 A3017 RMK AO2
K4BM 170915Z AUTO 24008KT 10SM CLR M04/M16 A3017 RMK AO2
K4BM 170855Z AUTO 26006KT 10SM CLR M04/M16 A3018 RMK AO2
K4BM 170835Z AUTO 24006KT 10SM CLR M03/M16 A3019 RMK AO2
K4BM 170815Z AUTO 24006KT 10SM CLR M03/M16 A3019 RMK AO2 LTG DSNT E
K4BM 170755Z AUTO 24005KT 10SM CLR M03/M16 A3020 RMK AO2
K4BM 170735Z AUTO 23006KT 10SM CLR M03/M16 A3021 RMK AO2
K4BM 170715Z AUTO 23007KT 10SM CLR M03/M16 A3021 RMK AO2
K4BM 170655Z AUTO 23007KT 10SM CLR M03/M16 A3021 RMK AO2 LTG DSNT E
K4BM 170635Z AUTO 22007KT 10SM CLR M03/M17 A3021 RMK AO2
K4BM 170615Z AUTO 22007KT 10SM CLR M03/M18 A3022 RMK AO2
K4BM 170555Z AUTO 22007G14KT 10SM CLR M03/M18 A3023 RMK AO2
K4BM 170535Z AUTO 21006KT 10SM CLR M03/M18 A3024 RMK AO2
K4BM 170515Z AUTO 20006KT 10SM CLR M03/M18 A3024 RMK AO2
K4BM 170455Z AUTO 20007KT 10SM CLR M03/M19 A3024 RMK AO2
K4BM 170435Z AUTO 21007KT 10SM CLR M02/M20 A3024 RMK AO2
K4BM 170415Z AUTO 21008KT 10SM CLR M02/M20 A3024 RMK AO2
K4BM 170355Z AUTO 21007KT 10SM CLR M02/M20 A3024 RMK AO2
K4BM 170335Z AUTO 23006KT 10SM CLR M02/M20 A3024 RMK AO2
K4BM 170315Z AUTO 23006KT 10SM CLR M02/M20 A3024 RMK AO2
K4BM 170255Z AUTO 22006KT 10SM CLR M02/M20 A3024 RMK AO2
K4BM 170235Z AUTO 21008KT 10SM CLR M02/M20 A3024 RMK AO2 LTG DSNT E
K4BM 170215Z AUTO 21006KT 10SM CLR M01/M20 A3025 RMK AO2
K4BM 170155Z AUTO 22003KT 10SM CLR M01/M19 A3026 RMK AO2
K4BM 170135Z AUTO 25004KT 10SM CLR M01/M19 A3026 RMK AO2
K4BM 170115Z AUTO 26007KT 10SM CLR M01/M20 A3026 RMK AO2
K4BM 170055Z AUTO 26005KT 10SM CLR M01/M20 A3025 RMK AO2
K4BM 170035Z AUTO 24005KT 10SM CLR M01/M20 A3024 RMK AO2
K4BM 170016Z AUTO 22004KT 10SM CLR M01/M19 A3024 RMK AO2 LTG DSNT E
K4BM 162355Z AUTO 00000KT 10SM CLR 00/M20 A3025 RMK AO2
K4BM 162335Z AUTO 22004KT 10SM CLR 00/M20 A3023 RMK AO2
K4BM 162315Z AUTO 23007KT 200V260 10SM CLR 00/M20 A3023 RMK AO2
K4BM 162255Z AUTO 24007G15KT 210V270 10SM CLR 01/M19 A3024 RMK AO2
K4BM 162235Z AUTO 28009G15KT 10SM CLR 00/M18 A3024 RMK AO2
K4BM 162215Z AUTO 29009G15KT 10SM CLR 00/M20 A3025 RMK AO2 LTG DSNT E